createdAt,value
2017-05-25T00:00:24.850Z,78.70
2017-05-25T00:02:53.126Z,78.70
2017-05-25T00:05:21.442Z,78.80
2017-05-25T00:07:49.749Z,78.80
2017-05-25T00:10:18.026Z,79.00
2017-05-25T00:12:46.339Z,79.10
2017-05-25T00:15:14.607Z,79.50
2017-05-25T00:17:42.884Z,79.70
2017-05-25T00:20:11.195Z,80.10
2017-05-25T00:22:39.499Z,80.30
2017-05-25T00:25:07.775Z,80.40
2017-05-25T00:27:36.095Z,80.90
2017-05-25T00:30:04.379Z,81.30
2017-05-25T00:32:32.655Z,81.60
2017-05-25T00:35:00.979Z,82.20
2017-05-25T00:37:29.574Z,82.80
2017-05-25T00:39:57.863Z,83.10
2017-05-25T00:42:26.508Z,83.30
2017-05-25T00:44:54.783Z,83.50
2017-05-25T00:47:23.059Z,83.80
2017-05-25T00:49:51.391Z,83.90
2017-05-25T00:52:19.675Z,84.20
2017-05-25T00:54:47.946Z,84.30
2017-05-25T00:57:16.283Z,84.50
2017-05-25T00:59:44.551Z,84.70
2017-05-25T01:02:12.827Z,85.20
2017-05-25T01:04:41.153Z,85.40
2017-05-25T01:07:09.482Z,85.60
2017-05-25T01:09:37.759Z,85.70
2017-05-25T01:12:06.083Z,85.90
2017-05-25T01:14:34.360Z,86.10
2017-05-25T01:17:02.635Z,86.30
2017-05-25T01:19:30.951Z,86.40
2017-05-25T01:21:59.231Z,86.60
2017-05-25T01:24:27.551Z,86.90
2017-05-25T01:26:55.831Z,87.10
2017-05-25T01:29:24.159Z,87.30
2017-05-25T01:31:52.439Z,87.60
2017-05-25T01:34:20.731Z,87.80
2017-05-25T01:36:49.059Z,88.00
2017-05-25T01:39:17.336Z,88.10
2017-05-25T01:41:45.611Z,88.20
2017-05-25T01:44:13.955Z,88.10
2017-05-25T01:46:42.240Z,88.00
2017-05-25T01:49:10.515Z,87.80
2017-05-25T01:51:38.826Z,87.90
2017-05-25T01:54:07.103Z,88.00
2017-05-25T01:56:35.435Z,88.30
2017-05-25T01:59:03.711Z,88.60
2017-05-25T02:01:32.001Z,89.00
2017-05-25T02:04:00.332Z,89.10
2017-05-25T02:06:28.610Z,89.30
2017-05-25T02:08:56.887Z,89.60
2017-05-25T02:11:25.221Z,89.80
2017-05-25T02:13:53.499Z,90.00
2017-05-25T02:16:21.770Z,90.10
2017-05-25T02:18:50.110Z,90.20
2017-05-25T02:21:18.391Z,90.30
2017-05-25T02:23:46.671Z,90.40
2017-05-25T02:26:14.987Z,90.50
2017-05-25T02:28:43.308Z,90.40
2017-05-25T02:31:11.599Z,90.40
2017-05-25T02:33:39.925Z,90.50
2017-05-25T02:36:08.207Z,90.50
2017-05-25T02:38:36.496Z,90.50
2017-05-25T02:41:04.823Z,90.60
2017-05-25T02:43:33.122Z,90.70
2017-05-25T02:46:01.407Z,90.80
2017-05-25T02:48:29.737Z,90.80
2017-05-25T02:50:58.018Z,90.90
2017-05-25T02:53:26.299Z,91.00
2017-05-25T02:55:54.619Z,91.10
2017-05-25T02:58:22.898Z,91.10
2017-05-25T03:00:51.175Z,91.20
2017-05-25T03:03:19.502Z,91.30
2017-05-25T03:05:47.782Z,91.30
2017-05-25T03:08:16.059Z,91.40
2017-05-25T03:10:44.390Z,91.40
2017-05-25T03:13:12.671Z,91.50
2017-05-25T03:15:40.947Z,91.60
2017-05-25T03:18:09.279Z,91.60
2017-05-25T03:20:37.573Z,91.50
2017-05-25T03:23:05.856Z,91.40
2017-05-25T03:25:34.182Z,91.30
2017-05-25T03:28:02.459Z,91.40
2017-05-25T03:30:30.734Z,91.30
2017-05-25T03:32:59.058Z,91.30
2017-05-25T03:35:27.344Z,91.40
2017-05-25T03:37:55.623Z,91.40
2017-05-25T03:40:23.942Z,91.50
2017-05-25T03:42:52.223Z,91.40
2017-05-25T03:45:20.539Z,91.40
2017-05-25T03:47:48.827Z,91.40
2017-05-25T03:50:17.110Z,91.30
2017-05-25T03:52:45.415Z,91.00
2017-05-25T03:55:13.704Z,91.00
2017-05-25T03:57:42.031Z,91.00
2017-05-25T04:00:10.311Z,90.90
2017-05-25T04:02:38.592Z,90.90
2017-05-25T04:05:06.939Z,90.80
2017-05-25T04:07:35.215Z,90.70
2017-05-25T04:10:03.492Z,90.60
2017-05-25T04:12:31.803Z,90.70
2017-05-25T04:15:00.083Z,91.20
2017-05-25T04:17:28.438Z,91.90
2017-05-25T04:19:56.731Z,92.00
2017-05-25T04:22:25.007Z,92.10
2017-05-25T04:24:53.331Z,92.10
2017-05-25T04:27:21.610Z,92.40
2017-05-25T04:29:49.891Z,92.70
2017-05-25T04:32:18.202Z,92.70
2017-05-25T04:34:46.480Z,92.80
2017-05-25T04:37:14.815Z,92.70
2017-05-25T04:39:43.095Z,92.50
2017-05-25T04:42:11.372Z,92.40
2017-05-25T04:44:39.687Z,92.40
2017-05-25T04:47:08.007Z,92.40
2017-05-25T04:49:36.278Z,92.20
2017-05-25T04:52:04.563Z,92.40
2017-05-25T04:54:32.875Z,92.50
2017-05-25T04:57:01.154Z,92.30
2017-05-25T04:59:29.502Z,92.30
2017-05-25T05:01:57.784Z,92.30
2017-05-25T05:04:26.060Z,92.20
2017-05-25T05:06:54.383Z,92.00
2017-05-25T05:09:22.659Z,91.90
2017-05-25T05:11:50.936Z,91.70
2017-05-25T05:14:19.260Z,91.50
2017-05-25T05:16:47.535Z,91.40
2017-05-25T05:19:16.402Z,91.50
2017-05-25T05:21:44.754Z,91.60
2017-05-25T05:24:13.026Z,91.80
2017-05-25T05:26:41.303Z,91.80
2017-05-25T05:29:09.628Z,91.80
2017-05-25T05:31:37.906Z,91.90
2017-05-25T05:34:06.227Z,91.90
2017-05-25T05:36:33.743Z,92.20
2017-05-25T05:39:02.024Z,91.60
2017-05-25T05:41:31.447Z,91.50
2017-05-25T05:43:59.720Z,91.50
2017-05-25T05:46:28.012Z,91.30
2017-05-25T05:48:56.339Z,91.40
2017-05-25T05:51:24.618Z,91.30
2017-05-25T05:53:52.898Z,90.90
2017-05-25T05:56:21.216Z,90.50
2017-05-25T05:58:49.547Z,89.90
2017-05-25T06:01:17.858Z,89.80
2017-05-25T06:03:46.136Z,89.90
2017-05-25T06:06:14.459Z,89.90
2017-05-25T06:08:42.792Z,89.90
2017-05-25T06:11:11.078Z,89.10
2017-05-25T06:13:39.360Z,89.50
2017-05-25T06:16:07.671Z,88.90
2017-05-25T06:18:35.951Z,89.20
2017-05-25T06:21:04.270Z,89.00
2017-05-25T06:23:32.595Z,88.60
2017-05-25T06:26:00.874Z,88.80
2017-05-25T06:28:29.155Z,89.50
2017-05-25T06:30:57.483Z,89.10
2017-05-25T06:33:25.762Z,89.10
2017-05-25T06:35:54.042Z,89.50
2017-05-25T06:38:22.364Z,88.60
2017-05-25T06:40:50.642Z,88.40
2017-05-25T06:43:18.925Z,88.20
2017-05-25T06:45:47.274Z,88.80
2017-05-25T06:48:15.555Z,88.70
2017-05-25T06:50:43.832Z,88.70
2017-05-25T06:53:12.164Z,88.70
2017-05-25T06:55:40.455Z,88.80
2017-05-25T06:58:08.735Z,88.50
2017-05-25T07:00:37.106Z,88.50
2017-05-25T07:03:05.386Z,88.80
2017-05-25T07:05:33.663Z,89.10
2017-05-25T07:08:01.999Z,88.60
2017-05-25T07:10:30.276Z,87.90
2017-05-25T07:12:58.555Z,87.70
2017-05-25T07:15:26.886Z,87.30
2017-05-25T07:17:55.167Z,86.00
2017-05-25T07:20:23.454Z,86.20
2017-05-25T07:22:51.816Z,86.40
2017-05-25T07:25:20.097Z,86.00
2017-05-25T07:27:48.378Z,86.70
2017-05-25T07:30:16.703Z,86.20
2017-05-25T07:32:44.979Z,86.30
2017-05-25T07:35:13.259Z,86.00
2017-05-25T07:37:41.575Z,85.60
2017-05-25T07:40:09.854Z,85.90
2017-05-25T07:42:38.136Z,85.20
2017-05-25T07:45:06.476Z,85.00
2017-05-25T07:47:34.774Z,84.40
2017-05-25T07:50:03.090Z,83.40
2017-05-25T07:52:31.414Z,83.30
2017-05-25T07:54:59.736Z,82.50
2017-05-25T07:57:28.020Z,82.20
2017-05-25T07:59:56.312Z,80.40
2017-05-25T08:02:24.993Z,79.50
2017-05-25T08:04:53.276Z,79.80
2017-05-25T08:07:21.615Z,79.70
2017-05-25T08:09:50.044Z,80.10
2017-05-25T08:12:18.339Z,80.00
2017-05-25T08:14:46.655Z,80.80
2017-05-25T08:17:14.947Z,81.30
2017-05-25T08:19:43.269Z,81.50
2017-05-25T08:22:11.571Z,82.50
2017-05-25T08:24:39.862Z,82.50
2017-05-25T08:27:08.183Z,82.30
2017-05-25T08:29:36.523Z,82.60
2017-05-25T08:32:04.824Z,82.30
2017-05-25T08:34:33.103Z,81.30
2017-05-25T08:37:01.418Z,80.40
2017-05-25T08:39:29.699Z,80.10
2017-05-25T08:41:58.016Z,80.50
2017-05-25T08:44:26.336Z,80.50
2017-05-25T08:46:54.626Z,80.30
2017-05-25T08:49:22.953Z,79.60
2017-05-25T08:51:51.230Z,78.80
2017-05-25T08:54:19.506Z,78.90
2017-05-25T08:56:47.839Z,78.50
2017-05-25T08:59:16.138Z,78.50
2017-05-25T09:01:44.419Z,78.20
2017-05-25T09:04:12.752Z,78.20
2017-05-25T09:06:41.031Z,77.40
2017-05-25T09:09:09.319Z,76.30
2017-05-25T09:11:37.651Z,76.60
2017-05-25T09:14:05.935Z,76.10
2017-05-25T09:16:34.218Z,77.00
2017-05-25T09:19:02.537Z,76.40
2017-05-25T09:21:30.812Z,76.40
2017-05-25T09:23:59.139Z,76.60
2017-05-25T09:26:27.415Z,76.10
2017-05-25T09:28:55.705Z,76.20
2017-05-25T09:31:24.015Z,76.90
2017-05-25T09:33:52.298Z,76.00
2017-05-25T09:36:20.627Z,76.00
2017-05-25T09:38:48.915Z,76.20
2017-05-25T09:41:17.203Z,76.20
2017-05-25T09:43:45.519Z,74.80
2017-05-25T09:46:13.796Z,74.50
2017-05-25T09:48:42.153Z,75.20
2017-05-25T09:51:10.447Z,75.70
2017-05-25T09:53:38.738Z,76.50
2017-05-25T09:56:07.079Z,77.40
2017-05-25T09:58:35.368Z,77.80
2017-05-25T10:01:03.683Z,78.60
2017-05-25T10:03:32.004Z,78.90
2017-05-25T10:06:00.318Z,78.70
2017-05-25T10:08:28.607Z,78.30
2017-05-25T10:10:56.938Z,77.70
2017-05-25T10:13:25.221Z,77.60
2017-05-25T10:15:53.503Z,77.40
2017-05-25T10:18:22.100Z,76.90
2017-05-25T10:20:50.387Z,76.50
2017-05-25T10:23:18.665Z,75.50
2017-05-25T10:25:46.975Z,74.30
2017-05-25T10:28:15.273Z,73.40
2017-05-25T10:30:43.631Z,73.10
2017-05-25T10:33:11.914Z,72.30
2017-05-25T10:35:40.200Z,72.30
2017-05-25T10:38:08.516Z,72.50
2017-05-25T10:40:36.839Z,71.60
2017-05-25T10:43:05.134Z,70.70
2017-05-25T10:45:33.415Z,69.40
2017-05-25T10:48:01.727Z,68.20
2017-05-25T10:50:30.047Z,68.30
2017-05-25T10:52:58.340Z,67.80
2017-05-25T10:55:26.626Z,67.50
2017-05-25T10:57:54.972Z,66.00
2017-05-25T11:00:23.254Z,65.70
2017-05-25T11:02:51.535Z,65.80
2017-05-25T11:05:19.859Z,65.10
2017-05-25T11:07:48.180Z,64.90
2017-05-25T11:10:16.474Z,66.30
2017-05-25T11:12:44.791Z,67.30
2017-05-25T11:15:13.113Z,67.90
2017-05-25T11:17:41.396Z,68.00
2017-05-25T11:20:09.690Z,68.50
2017-05-25T11:22:38.054Z,67.30
2017-05-25T11:25:06.335Z,67.70
2017-05-25T11:27:34.624Z,69.10
2017-05-25T11:30:02.951Z,69.10
2017-05-25T11:32:31.238Z,69.20
2017-05-25T11:34:59.559Z,68.50
2017-05-25T11:37:27.867Z,66.70
2017-05-25T11:39:56.196Z,66.60
2017-05-25T11:42:24.479Z,66.00
2017-05-25T11:44:52.762Z,65.60
2017-05-25T11:47:21.082Z,65.20
2017-05-25T11:49:49.369Z,64.60
2017-05-25T11:52:17.695Z,66.00
2017-05-25T11:54:45.982Z,65.60
2017-05-25T11:57:14.268Z,66.50
2017-05-25T11:59:42.635Z,66.10
2017-05-25T12:02:10.927Z,67.30
2017-05-25T12:04:39.254Z,67.70
2017-05-25T12:07:07.541Z,67.50
2017-05-25T12:09:35.911Z,67.90
2017-05-25T12:12:04.197Z,66.80
2017-05-25T12:14:32.471Z,67.00
2017-05-25T12:17:00.800Z,65.90
2017-05-25T12:19:29.071Z,65.20
2017-05-25T12:21:57.343Z,64.80
2017-05-25T12:24:25.708Z,66.90
2017-05-25T12:26:53.980Z,66.50
2017-05-25T12:29:22.307Z,66.60
2017-05-25T12:31:50.621Z,65.60
2017-05-25T12:34:18.909Z,63.80
2017-05-25T12:36:47.230Z,63.70
2017-05-25T12:39:15.503Z,63.40
2017-05-25T12:41:43.791Z,63.50
2017-05-25T12:44:12.138Z,63.50
2017-05-25T12:46:40.418Z,65.50
2017-05-25T12:49:08.711Z,65.00
2017-05-25T12:51:37.035Z,63.90
2017-05-25T12:54:05.306Z,64.40
2017-05-25T12:56:33.608Z,64.80
2017-05-25T12:59:01.930Z,64.00
2017-05-25T13:01:30.202Z,63.20
2017-05-25T13:03:58.475Z,62.30
2017-05-25T13:06:26.790Z,60.70
2017-05-25T13:08:55.067Z,61.20
2017-05-25T13:11:23.342Z,60.80
2017-05-25T13:13:51.674Z,59.60
2017-05-25T13:16:19.988Z,61.10
2017-05-25T13:18:48.263Z,59.90
2017-05-25T13:21:16.531Z,60.00
2017-05-25T13:24:39.475Z,60.00
2017-05-25T13:27:08.871Z,61.50
2017-05-25T13:29:38.002Z,60.50
2017-05-25T13:32:07.141Z,61.50
2017-05-25T13:34:36.264Z,61.30
2017-05-25T13:37:05.359Z,61.80
2017-05-25T13:39:34.484Z,62.10
2017-05-25T13:42:03.611Z,61.80
2017-05-25T13:44:32.760Z,62.30
2017-05-25T13:47:01.963Z,63.10
2017-05-25T13:49:31.319Z,62.70
2017-05-25T13:52:00.418Z,61.70
2017-05-25T13:54:29.547Z,59.40
2017-05-25T13:56:58.739Z,59.50
2017-05-25T13:59:27.887Z,59.10
2017-05-25T14:01:57.059Z,59.50
2017-05-25T14:04:26.156Z,59.60
2017-05-25T14:06:55.306Z,59.30
2017-05-25T14:09:24.398Z,58.90
2017-05-25T14:11:53.554Z,60.00
2017-05-25T14:14:22.726Z,59.30
2017-05-25T14:16:51.823Z,59.00
2017-05-25T14:19:20.963Z,58.10
2017-05-25T14:21:50.069Z,57.60
2017-05-25T14:24:19.208Z,58.70
2017-05-25T14:26:48.297Z,58.10
2017-05-25T14:29:17.458Z,58.50
2017-05-25T14:31:46.567Z,58.60
2017-05-25T14:34:15.695Z,58.30
2017-05-25T14:36:44.827Z,59.30
2017-05-25T14:39:13.963Z,60.40
2017-05-25T14:41:43.111Z,59.80
2017-05-25T14:44:12.209Z,59.90
2017-05-25T14:46:41.388Z,59.60
2017-05-25T14:49:10.480Z,59.00
2017-05-25T14:51:39.619Z,59.30
2017-05-25T14:54:08.754Z,58.50
2017-05-25T14:56:37.944Z,58.40
2017-05-25T14:59:07.046Z,58.20
2017-05-25T15:01:36.203Z,57.90
2017-05-25T15:04:05.291Z,57.00
2017-05-25T15:06:34.410Z,56.70
2017-05-25T15:09:03.556Z,56.90
2017-05-25T15:11:32.647Z,57.60
2017-05-25T15:14:01.787Z,57.70
2017-05-25T15:16:30.907Z,57.40
2017-05-25T15:19:00.056Z,58.10
2017-05-25T15:21:29.151Z,58.50
2017-05-25T15:23:58.300Z,58.70
2017-05-25T15:26:27.395Z,59.00
2017-05-25T15:28:56.558Z,59.20
2017-05-25T15:31:25.659Z,59.60
2017-05-25T15:33:54.820Z,59.80
2017-05-25T15:36:23.927Z,59.80
2017-05-25T15:38:53.088Z,59.40
2017-05-25T15:41:22.220Z,59.70
2017-05-25T15:43:50.546Z,59.60
2017-05-25T15:46:19.695Z,59.20
2017-05-25T15:48:48.790Z,59.30
2017-05-25T15:51:17.935Z,60.20
2017-05-25T15:53:47.035Z,60.60
2017-05-25T15:56:16.159Z,60.10
2017-05-25T15:58:45.266Z,60.00
2017-05-25T16:01:14.423Z,59.10
2017-05-25T16:03:43.515Z,58.50
2017-05-25T16:06:12.666Z,57.70
2017-05-25T16:08:41.774Z,56.60
2017-05-25T16:11:10.968Z,56.80
2017-05-25T16:13:40.103Z,57.40
2017-05-25T16:16:09.279Z,57.40
2017-05-25T16:18:38.431Z,57.20
2017-05-25T16:21:07.527Z,58.00
2017-05-25T16:23:36.666Z,58.30
2017-05-25T16:26:05.892Z,58.50
2017-05-25T16:28:35.026Z,58.80
2017-05-25T16:31:04.164Z,58.60
2017-05-25T16:33:33.263Z,57.60
2017-05-25T16:36:02.404Z,54.80
2017-05-25T16:38:31.534Z,52.50
2017-05-25T16:41:01.667Z,51.80
2017-05-25T16:43:30.774Z,53.00
2017-05-25T16:46:00.174Z,53.40
2017-05-25T16:48:29.267Z,52.70
2017-05-25T16:50:58.437Z,51.80
2017-05-25T16:53:27.544Z,52.40
2017-05-25T16:55:56.687Z,53.80
2017-05-25T16:58:25.778Z,55.00
2017-05-25T17:00:54.938Z,56.10
2017-05-25T17:03:24.075Z,56.80
2017-05-25T17:05:53.387Z,58.10
2017-05-25T17:08:22.490Z,58.80
2017-05-25T17:10:51.624Z,59.20
2017-05-25T17:13:20.719Z,59.50
2017-05-25T17:15:49.883Z,59.90
2017-05-25T17:18:19.007Z,60.20
2017-05-25T17:20:48.207Z,60.00
2017-05-25T17:23:17.316Z,59.60
2017-05-25T17:25:46.727Z,59.80
2017-05-25T17:28:15.892Z,59.70
2017-05-25T17:30:44.999Z,60.20
2017-05-25T17:33:14.145Z,60.20
2017-05-25T17:35:43.299Z,59.90
2017-05-25T17:38:12.436Z,59.80
2017-05-25T17:40:41.568Z,57.90
2017-05-25T17:43:10.737Z,56.40
2017-05-25T17:45:39.830Z,55.50
2017-05-25T17:48:09.006Z,55.70
2017-05-25T17:50:38.106Z,56.60
2017-05-25T17:53:07.274Z,57.20
2017-05-25T17:55:36.391Z,58.60
2017-05-25T17:58:05.525Z,59.60
2017-05-25T18:00:34.621Z,60.60
2017-05-25T18:03:03.841Z,61.80
2017-05-25T18:05:32.932Z,62.10
2017-05-25T18:08:02.106Z,61.90
2017-05-25T18:10:31.209Z,62.80
2017-05-25T18:13:00.351Z,62.70
2017-05-25T18:15:29.458Z,63.10
2017-05-25T18:17:58.579Z,63.60
2017-05-25T18:20:27.704Z,63.50
2017-05-25T18:22:56.839Z,63.40
2017-05-25T18:25:25.974Z,63.40
2017-05-25T18:27:55.075Z,63.80
2017-05-25T18:30:24.223Z,63.60
2017-05-25T18:32:53.333Z,63.60
2017-05-25T18:35:22.454Z,64.50
2017-05-25T18:37:51.617Z,64.70
2017-05-25T18:40:20.838Z,65.10
2017-05-25T18:42:49.994Z,65.10
2017-05-25T18:45:19.083Z,65.00
2017-05-25T18:47:48.257Z,65.90
2017-05-25T18:50:17.371Z,65.60
2017-05-25T18:52:46.557Z,65.70
2017-05-25T18:55:15.691Z,65.90
2017-05-25T18:57:44.903Z,66.00
2017-05-25T19:00:13.231Z,66.00
2017-05-25T19:02:42.467Z,66.70
2017-05-25T19:05:11.605Z,66.90
2017-05-25T19:07:40.744Z,67.30
2017-05-25T19:10:09.887Z,67.60
2017-05-25T19:12:39.008Z,67.80
2017-05-25T19:15:08.128Z,68.20
2017-05-25T19:17:37.256Z,68.50
2017-05-25T19:22:40.329Z,69.10
2017-05-25T19:25:09.410Z,70.50
2017-05-25T19:27:38.542Z,70.80
2017-05-25T19:30:07.608Z,71.60
2017-05-25T19:32:36.763Z,71.90
2017-05-25T19:35:05.858Z,72.30
2017-05-25T19:37:34.983Z,72.70
2017-05-25T19:40:04.067Z,73.30
2017-05-25T19:42:34.001Z,73.60
2017-05-25T19:45:03.051Z,73.90
2017-05-25T19:47:32.151Z,74.30
2017-05-25T19:50:01.464Z,74.40
2017-05-25T19:52:30.571Z,74.70
2017-05-25T19:54:59.731Z,75.10
2017-05-25T19:57:28.852Z,75.30
2017-05-25T19:59:57.982Z,75.80
2017-05-25T20:02:27.380Z,75.90
2017-05-25T20:04:56.472Z,76.10
2017-05-25T20:07:25.556Z,76.30
2017-05-25T20:09:54.658Z,76.70
2017-05-25T20:12:23.764Z,77.10
2017-05-25T20:14:52.922Z,77.20
2017-05-25T20:17:22.011Z,77.50
2017-05-25T20:19:51.244Z,77.80
2017-05-25T20:22:20.341Z,78.00
2017-05-25T20:24:49.458Z,78.40
2017-05-25T20:27:18.660Z,78.50
2017-05-25T20:29:48.523Z,78.80
2017-05-25T20:32:17.639Z,79.00
2017-05-25T20:34:46.754Z,79.20
2017-05-25T20:37:15.852Z,79.60
2017-05-25T20:39:45.920Z,80.00
2017-05-25T20:42:15.020Z,80.20
2017-05-25T20:44:44.237Z,80.60
2017-05-25T20:47:13.607Z,80.80
2017-05-25T20:49:42.688Z,81.30
2017-05-25T20:52:11.790Z,81.70
2017-05-25T20:54:40.874Z,81.80
2017-05-25T20:57:09.951Z,82.20
2017-05-25T20:59:39.172Z,82.90
2017-05-25T21:02:08.242Z,82.80
2017-05-25T21:04:37.334Z,83.00
2017-05-25T21:07:06.775Z,83.30
2017-05-25T21:09:35.880Z,83.40
2017-05-25T21:12:04.985Z,83.50
2017-05-25T21:14:34.273Z,83.60
2017-05-25T21:17:03.382Z,83.80
2017-05-25T21:19:32.535Z,83.90
2017-05-25T21:22:01.964Z,84.10
2017-05-25T21:24:31.163Z,84.30
2017-05-25T21:27:00.267Z,84.60
2017-05-25T21:29:29.467Z,84.80
2017-05-25T21:31:58.559Z,85.10
2017-05-25T21:34:27.636Z,85.10
2017-05-25T21:36:56.739Z,85.40
2017-05-25T21:39:25.817Z,85.40
2017-05-25T21:41:55.005Z,85.60
2017-05-25T21:44:24.079Z,85.90
2017-05-25T21:46:53.168Z,86.10
2017-05-25T21:49:22.288Z,86.40
2017-05-25T21:51:51.378Z,86.50
2017-05-25T21:54:20.603Z,86.70
2017-05-25T21:56:48.883Z,86.70
2017-05-25T21:59:17.981Z,86.80
2017-05-25T22:01:47.208Z,86.80
2017-05-25T22:04:16.307Z,87.00
2017-05-25T22:06:45.396Z,87.20
2017-05-25T22:09:14.762Z,87.50
2017-05-25T22:11:43.880Z,88.40
2017-05-25T22:14:12.971Z,87.80
2017-05-25T22:16:42.088Z,88.10
2017-05-25T22:19:11.167Z,88.10
2017-05-25T22:21:40.390Z,88.40
2017-05-25T22:24:09.463Z,88.70
2017-05-25T22:26:38.566Z,89.10
2017-05-25T22:29:07.751Z,89.50
2017-05-25T22:31:36.829Z,89.70
2017-05-25T22:34:05.922Z,90.00
2017-05-25T22:36:35.143Z,90.10
2017-05-25T22:39:03.447Z,90.00
2017-05-25T22:41:32.511Z,90.20
2017-05-25T22:44:01.983Z,90.10
2017-05-25T22:46:31.059Z,90.20
2017-05-25T22:48:59.365Z,90.20
2017-05-25T22:51:28.454Z,90.50
2017-05-25T22:53:57.526Z,90.60
2017-05-25T22:56:26.623Z,90.70
2017-05-25T22:58:55.699Z,91.00
2017-05-25T23:01:24.903Z,91.10
2017-05-25T23:03:53.959Z,91.20
2017-05-25T23:06:23.051Z,91.30
2017-05-25T23:08:52.522Z,91.50
2017-05-25T23:11:21.594Z,91.70
2017-05-25T23:13:50.668Z,91.80
2017-05-25T23:16:19.755Z,91.90
2017-05-25T23:18:48.830Z,92.00
2017-05-25T23:21:18.039Z,92.00
2017-05-25T23:23:47.107Z,92.10
2017-05-25T23:26:16.166Z,92.00
2017-05-25T23:28:45.364Z,91.80
2017-05-25T23:31:14.441Z,91.80
2017-05-25T23:33:43.506Z,91.70
2017-05-25T23:36:12.986Z,91.90
2017-05-25T23:38:42.050Z,91.90
2017-05-25T23:41:11.129Z,92.00
2017-05-25T23:43:40.466Z,92.00
2017-05-25T23:46:09.532Z,92.00
2017-05-25T23:48:38.615Z,92.30
2017-05-25T23:51:07.720Z,92.10
2017-05-25T23:53:36.787Z,92.20
2017-05-25T23:56:05.873Z,92.20
2017-05-25T23:58:34.938Z,92.50
